Time;durP1;ratioP1;P1;durP2;ratioP2;P2;SDS_P1;SDS_P2;PMS_P1;PMS_P2;Temp;Humidity;BMP_temperature;BMP_pressure;BME280_temperature;BME280_humidity;BME280_pressure;Samples;Min_cycle;Max_cycle;Signal;HPM_P1;HPM_P2
2022/10/08 00:01:27;;;;;;;4.38;2.90;;;;;;;12.34;40.00;101350.44;5008405;28;20046;-70
2022/10/08 00:03:56;;;;;;;5.97;2.97;;;;;;;12.30;40.16;101349.81;5006722;28;20057;-70
2022/10/08 00:06:27;;;;;;;6.00;3.20;;;;;;;12.29;40.57;101349.97;5015719;28;20052;-71
2022/10/08 00:08:58;;;;;;;5.65;3.05;;;;;;;12.27;40.49;101343.72;5008984;28;20056;-70
2022/10/08 00:11:29;;;;;;;6.30;3.07;;;;;;;12.22;40.21;101343.25;5006507;28;20046;-70
2022/10/08 00:13:57;;;;;;;6.65;3.50;;;;;;;12.20;40.32;101337.03;5008413;28;20107;-70
2022/10/08 00:16:28;;;;;;;5.75;2.70;;;;;;;12.19;40.61;101338.03;5008217;28;20065;-70
2022/10/08 00:18:59;;;;;;;7.70;3.42;;;;;;;12.16;40.70;101344.66;5008369;28;20578;-70
2022/10/08 00:21:29;;;;;;;5.97;3.05;;;;;;;12.15;40.89;101342.03;5007752;28;20057;-70
2022/10/08 00:24:00;;;;;;;5.47;2.95;;;;;;;12.14;40.95;101335.69;5008308;28;20054;-70
2022/10/08 00:26:30;;;;;;;6.93;2.88;;;;;;;12.13;40.51;101338.59;5007686;28;20128;-73
2022/10/08 00:29:00;;;;;;;5.95;2.70;;;;;;;12.10;40.71;101332.34;5008266;28;20042;-73
2022/10/08 00:31:31;;;;;;;6.75;2.80;;;;;;;12.10;40.58;101340.59;5008178;28;20564;-73
2022/10/08 00:34:01;;;;;;;5.72;3.08;;;;;;;12.09;40.71;101336.09;5005730;28;20124;-73
2022/10/08 00:36:31;;;;;;;6.03;3.10;;;;;;;12.07;41.00;101332.59;5000786;28;20046;-73
2022/10/08 00:39:03;;;;;;;5.95;2.88;;;;;;;12.07;40.87;101324.38;5008953;28;20030;-73
2022/10/08 00:41:33;;;;;;;6.15;2.75;;;;;;;12.05;40.67;101318.13;5006893;28;20069;-73
2022/10/08 00:44:03;;;;;;;5.80;2.70;;;;;;;12.04;40.81;101321.91;5007200;28;20052;-73
2022/10/08 00:46:36;;;;;;;6.07;2.25;;;;;;;12.05;41.38;101320.00;5012465;28;20046;-73
2022/10/08 00:49:05;;;;;;;;;;;;;;;11.74;41.68;101319.91;5008824;28;20042;-73
2022/10/08 00:51:33;;;;;;;5.07;2.05;;;;;;;11.98;40.96;101324.28;5007016;28;20297;-73
2022/10/08 00:54:04;;;;;;;4.18;2.38;;;;;;;12.02;41.00;101318.44;5008196;28;20061;-73
2022/10/08 00:56:35;;;;;;;5.88;2.38;;;;;;;12.02;40.90;101320.28;4993898;28;20054;-73
2022/10/08 00:59:04;;;;;;;3.72;2.13;;;;;;;12.01;40.60;101327.66;5008208;28;20427;-73
2022/10/08 01:01:32;;;;;;;5.13;2.00;;;;;;;12.01;41.09;101321.28;5007003;28;20104;-73
2022/10/08 01:04:05;;;;;;;4.90;2.50;;;;;;;12.05;40.98;101320.00;5006807;28;20046;-73
2022/10/08 01:06:42;;;;;;;4.65;2.00;;;;;;;12.05;41.72;101320.88;5007622;28;20065;-73
2022/10/08 01:09:15;;;;;;;4.60;2.33;;;;;;;12.04;41.25;101318.31;5007813;28;20072;-73
2022/10/08 01:11:50;;;;;;;6.30;2.20;;;;;;;12.04;41.54;101321.03;5021852;28;20066;-73
2022/10/08 01:14:31;;;;;;;3.70;1.98;;;;;;;12.05;41.77;101317.28;5007482;28;20042;-73
2022/10/08 01:17:10;;;;;;;5.05;1.95;;;;;;;12.07;41.57;101324.38;5006701;28;20398;-73
2022/10/08 01:19:56;;;;;;;4.00;1.83;;;;;;;12.08;41.59;101315.16;5008097;28;20049;-73
2022/10/08 01:22:38;;;;;;;3.42;1.42;;;;;;;12.09;41.35;101316.88;5006542;28;20068;-73
2022/10/08 01:25:32;;;;;;;5.30;1.95;;;;;;;12.08;41.82;101312.41;5005981;28;20136;-73
2022/10/08 01:28:09;;;;;;;4.10;1.85;;;;;;;12.09;41.47;101313.28;5008400;28;20586;-73
2022/10/08 01:30:41;;;;;;;4.00;1.70;;;;;;;12.10;41.02;101312.28;5006802;28;20450;-73
2022/10/08 01:33:14;;;;;;;4.20;1.85;;;;;;;12.10;41.00;101315.88;5008034;28;20414;-73
2022/10/08 01:35:46;;;;;;;4.40;1.85;;;;;;;12.12;41.29;101318.50;4998821;28;20050;-73
2022/10/08 01:38:17;;;;;;;4.78;2.10;;;;;;;12.11;40.99;101316.75;5007333;28;20506;-73
2022/10/08 01:40:47;;;;;;;4.32;2.17;;;;;;;12.11;41.41;101325.00;5006612;28;20057;-73
2022/10/08 01:43:20;;;;;;;6.70;2.10;;;;;;;12.10;40.99;101320.50;4989286;28;20100;-72
2022/10/08 01:45:55;;;;;;;6.90;2.88;;;;;;;12.07;41.72;101312.53;5006873;28;20137;-73
2022/10/08 01:48:28;;;;;;;6.00;2.33;;;;;;;12.05;41.27;101309.03;5006842;28;20096;-73
2022/10/08 01:51:03;;;;;;;4.68;2.30;;;;;;;12.01;41.21;101310.31;5007019;28;20050;-73
2022/10/08 01:53:37;;;;;;;6.22;2.28;;;;;;;12.00;41.18;101314.06;5006545;28;20124;-73
2022/10/08 01:56:10;;;;;;;4.85;2.22;;;;;;;11.97;41.35;101314.31;5006997;28;20045;-74
2022/10/08 01:58:46;;;;;;;5.63;2.22;;;;;;;11.93;41.73;101324.69;5007718;28;20049;-73
2022/10/08 02:01:20;;;;;;;5.50;2.40;;;;;;;11.91;41.71;101317.59;5005197;28;20042;-73
2022/10/08 02:06:35;;;;;;;5.80;2.85;;;;;;;11.86;41.43;101314.41;4994443;28;20069;-69
2022/10/08 02:09:03;;;;;;;4.60;2.47;;;;;;;11.82;41.54;101310.16;4990611;28;20046;-69
2022/10/08 02:11:34;;;;;;;5.35;2.30;;;;;;;11.78;41.59;101306.81;5005438;28;20476;-69
2022/10/08 02:14:05;;;;;;;4.55;2.45;;;;;;;11.77;41.53;101313.31;5007016;28;20041;-69
2022/10/08 02:16:37;;;;;;;5.57;2.60;;;;;;;11.74;42.05;101308.94;4989665;28;20042;-69
2022/10/08 02:19:10;;;;;;;5.65;2.38;;;;;;;11.70;41.81;101303.88;4990571;28;20050;-68
2022/10/08 02:21:40;;;;;;;5.80;2.63;;;;;;;11.67;41.61;101310.47;5006637;28;20510;-69
2022/10/08 02:24:13;;;;;;;6.13;2.75;;;;;;;11.65;41.99;101304.25;4993315;28;20586;-69
2022/10/08 02:26:47;;;;;;;6.05;2.50;;;;;;;11.61;42.19;101300.03;5007288;28;20132;-69
2022/10/08 02:29:21;;;;;;;5.38;2.40;;;;;;;11.61;42.64;101304.66;5007107;28;20050;-69
2022/10/08 02:31:53;;;;;;;6.95;3.17;;;;;;;11.58;41.93;101299.38;5010319;28;20141;-69
2022/10/08 02:34:26;;;;;;;4.97;2.42;;;;;;;11.54;42.59;101298.78;5010875;28;20053;-69
2022/10/08 02:37:00;;;;;;;4.65;2.17;;;;;;;11.52;42.66;101297.16;4992147;28;20049;-69
2022/10/08 02:39:31;;;;;;;4.90;2.40;;;;;;;11.51;42.49;101290.81;5011043;28;20120;-69
2022/10/08 02:42:02;;;;;;;5.55;2.63;;;;;;;11.51;42.21;101289.94;5009767;28;20052;-69
2022/10/08 02:44:36;;;;;;;5.43;2.40;;;;;;;11.51;42.49;101292.69;5010176;28;20395;-69
2022/10/08 02:47:07;;;;;;;5.50;2.70;;;;;;;11.49;42.16;101294.69;5010497;28;20145;-69
2022/10/08 02:49:40;;;;;;;5.63;2.45;;;;;;;11.48;42.47;101288.31;4993026;28;20060;-68
2022/10/08 02:52:10;;;;;;;5.25;2.40;;;;;;;11.46;42.46;101292.22;5009324;28;20041;-69
2022/10/08 02:54:40;;;;;;;6.32;2.60;;;;;;;11.47;42.54;101293.97;5010738;28;20046;-69
2022/10/08 02:57:14;;;;;;;5.25;2.42;;;;;;;11.49;42.61;101291.94;5020037;28;20045;-69
2022/10/08 02:59:43;;;;;;;5.53;2.78;;;;;;;11.48;42.72;101298.41;5010698;28;20084;-69
2022/10/08 03:02:19;;;;;;;4.57;2.25;;;;;;;11.48;42.76;101295.66;5009783;28;20617;-69
2022/10/08 03:04:52;;;;;;;7.20;2.50;;;;;;;11.47;42.93;101289.31;4999635;28;20104;-69
2022/10/08 03:07:21;;;;;;;5.22;2.45;;;;;;;11.46;42.62;101293.09;4991457;28;20133;-69
2022/10/08 03:09:51;;;;;;;7.35;2.72;;;;;;;11.47;42.64;101297.53;5010381;28;20457;-69
2022/10/08 03:12:20;;;;;;;4.25;2.53;;;;;;;11.47;42.93;101283.00;5007603;28;20140;-68
2022/10/08 03:14:51;;;;;;;3.65;2.28;;;;;;;11.48;42.87;101282.84;5009655;28;20050;-69
2022/10/08 03:17:23;;;;;;;7.90;2.75;;;;;;;11.51;43.33;101287.19;4999831;28;20558;-69
2022/10/08 03:19:52;;;;;;;6.68;2.92;;;;;;;11.47;43.28;101278.34;5010666;28;20140;-69
2022/10/08 03:22:19;;;;;;;5.63;2.42;;;;;;;11.51;43.28;101292.69;5008897;28;20104;-68
2022/10/08 03:24:48;;;;;;;4.65;2.20;;;;;;;11.52;42.95;101291.69;5010122;28;20343;-69
2022/10/08 03:27:20;;;;;;;4.57;2.22;;;;;;;11.50;42.79;101297.28;5009869;28;20100;-69
2022/10/08 03:29:50;;;;;;;4.03;2.22;;;;;;;11.56;43.03;101309.59;5009685;28;20050;-69
2022/10/08 03:32:18;;;;;;;6.78;2.95;;;;;;;11.56;43.24;101309.59;5008812;28;20058;-69
2022/10/08 03:34:46;;;;;;;6.50;2.97;;;;;;;11.56;43.23;101315.97;4992488;28;20463;-69
2022/10/08 03:37:14;;;;;;;5.00;2.20;;;;;;;11.59;43.06;101321.19;5009337;28;20052;-69
2022/10/08 03:39:43;;;;;;;6.70;2.47;;;;;;;11.61;43.57;101327.47;5009466;28;20061;-69
2022/10/08 03:42:11;;;;;;;4.82;2.50;;;;;;;11.63;43.35;101330.06;5007901;28;20054;-69
2022/10/08 03:44:38;;;;;;;4.80;2.60;;;;;;;11.65;43.21;101337.16;5009982;28;20073;-69
2022/10/08 03:47:08;;;;;;;4.95;2.45;;;;;;;11.69;43.21;101335.03;5009063;28;20053;-69
2022/10/08 03:49:35;;;;;;;5.75;2.50;;;;;;;11.68;43.79;101333.28;5009409;28;20096;-69
2022/10/08 03:52:03;;;;;;;4.55;2.13;;;;;;;11.70;43.62;101332.16;4998177;28;20124;-69
2022/10/08 03:54:34;;;;;;;4.35;2.10;;;;;;;11.74;43.70;101338.25;5010609;28;20046;-69
2022/10/08 03:57:02;;;;;;;5.32;2.10;;;;;;;11.72;43.77;101337.50;5009243;28;20425;-69
2022/10/08 03:59:31;;;;;;;5.18;2.25;;;;;;;11.75;43.55;101339.97;5009087;28;20068;-69
2022/10/08 04:01:59;;;;;;;5.30;2.30;;;;;;;11.74;43.50;101340.97;4991329;28;20050;-69
2022/10/08 04:04:28;;;;;;;4.82;2.20;;;;;;;11.78;43.62;101345.22;5009584;28;20033;-69
2022/10/08 04:06:56;;;;;;;4.88;2.22;;;;;;;11.77;43.80;101339.84;5006596;28;20119;-69
2022/10/08 04:09:24;;;;;;;5.20;2.38;;;;;;;11.78;43.75;101336.13;5009648;28;20108;-69
2022/10/08 04:11:54;;;;;;;5.15;2.30;;;;;;;11.78;43.94;101337.00;5008469;28;20045;-69
2022/10/08 04:14:22;;;;;;;5.53;2.08;;;;;;;11.79;43.64;101341.47;4996505;28;20049;-69
2022/10/08 04:16:50;;;;;;;4.55;2.28;;;;;;;11.80;44.19;101334.97;5008115;28;20533;-69
2022/10/08 04:19:18;;;;;;;5.47;2.35;;;;;;;11.82;44.20;101345.81;5009494;28;20053;-69
2022/10/08 04:21:47;;;;;;;4.75;2.10;;;;;;;11.85;43.84;101338.22;5008248;28;20482;-69
2022/10/08 04:24:15;;;;;;;4.88;2.17;;;;;;;11.87;44.29;101346.31;4990999;28;20112;-68
2022/10/08 04:26:43;;;;;;;4.28;2.15;;;;;;;11.87;44.15;101349.94;5007950;28;20092;-69
2022/10/08 04:29:11;;;;;;;4.18;2.25;;;;;;;11.90;44.57;101357.00;5009586;28;20046;-69
2022/10/08 04:31:40;;;;;;;4.45;2.17;;;;;;;11.91;44.67;101354.13;5008033;28;20057;-69
2022/10/08 04:34:10;;;;;;;5.15;1.90;;;;;;;11.93;44.31;101357.63;5008373;28;20121;-68
2022/10/08 04:36:38;;;;;;;3.63;1.80;;;;;;;11.96;44.88;101354.63;5008249;28;20046;-69
2022/10/08 04:39:08;;;;;;;4.22;1.85;;;;;;;11.99;44.83;101359.81;5008903;28;20052;-69
2022/10/08 04:41:36;;;;;;;5.22;1.80;;;;;;;12.00;44.52;101352.47;5006861;28;20042;-69
2022/10/08 04:44:03;;;;;;;4.50;1.75;;;;;;;12.03;44.76;101360.44;5008854;28;20446;-69
2022/10/08 04:46:31;;;;;;;5.47;2.30;;;;;;;12.05;44.77;101358.41;5007908;28;20054;-69
2022/10/08 04:48:59;;;;;;;3.75;1.60;;;;;;;12.07;45.27;101365.53;5008773;28;20074;-69
2022/10/08 04:51:27;;;;;;;4.63;1.60;;;;;;;12.10;45.49;101357.03;4989591;28;20041;-69
2022/10/08 04:53:56;;;;;;;3.30;1.67;;;;;;;12.13;45.28;101360.53;5006284;28;20061;-69
2022/10/08 04:56:27;;;;;;;3.05;1.70;;;;;;;12.17;45.76;101370.22;5007660;28;20054;-69
2022/10/08 04:58:55;;;;;;;3.90;1.90;;;;;;;12.17;45.36;101356.50;5008280;28;20384;-69
2022/10/08 05:01:24;;;;;;;4.13;1.77;;;;;;;12.20;45.83;101354.38;4994719;28;20554;-69
2022/10/08 05:03:55;;;;;;;6.05;1.63;;;;;;;12.22;46.09;101365.19;5007124;28;20073;-69
2022/10/08 05:06:25;;;;;;;5.20;1.73;;;;;;;12.26;46.06;101361.19;5006313;28;20053;-70
2022/10/08 05:08:54;;;;;;;4.00;1.70;;;;;;;12.26;46.06;101366.69;5008030;28;20065;-69
2022/10/08 05:11:26;;;;;;;4.93;2.05;;;;;;;12.29;46.09;101369.19;5005725;28;20065;-69
2022/10/08 05:13:55;;;;;;;4.82;1.95;;;;;;;12.28;46.29;101378.41;5007857;28;20057;-69
2022/10/08 05:16:23;;;;;;;5.32;1.58;;;;;;;12.30;45.94;101369.03;5007035;28;20042;-69
2022/10/08 05:18:51;;;;;;;3.05;1.80;;;;;;;12.33;46.23;101371.50;4990839;28;20054;-69
2022/10/08 05:21:23;;;;;;;4.60;1.83;;;;;;;12.36;46.80;101371.25;5007571;28;20133;-69
2022/10/08 05:23:54;;;;;;;3.60;1.70;;;;;;;12.37;47.03;101370.25;5008067;28;20038;-69
2022/10/08 05:26:25;;;;;;;6.20;1.85;;;;;;;12.39;46.74;101367.34;5006311;28;20049;-70
2022/10/08 05:29:14;;;;;;;2.72;1.33;;;;;;;12.39;46.50;101376.47;4996905;28;20046;-69
2022/10/08 05:31:42;;;;;;;3.83;1.52;;;;;;;12.40;46.24;101372.72;5006734;28;20057;-69
2022/10/08 05:34:12;;;;;;;2.83;1.52;;;;;;;12.43;46.78;101382.56;5008024;28;20103;-69
2022/10/08 05:36:40;;;;;;;4.38;1.58;;;;;;;12.44;46.39;101376.06;5005916;28;20050;-69
2022/10/08 05:39:08;;;;;;;2.83;1.60;;;;;;;12.44;46.60;101389.78;5007741;28;20164;-70
2022/10/08 05:41:37;;;;;;;4.15;1.80;;;;;;;12.46;46.55;101391.38;5004839;28;20045;-69
2022/10/08 05:44:06;;;;;;;3.35;1.55;;;;;;;12.47;46.89;101387.63;5008349;28;20060;-69
2022/10/08 05:46:37;;;;;;;3.00;1.60;;;;;;;12.49;46.79;101399.38;5007176;28;20511;-69
2022/10/08 05:49:07;;;;;;;4.78;1.70;;;;;;;12.50;46.84;101411.22;5006414;28;20152;-68
2022/10/08 05:51:37;;;;;;;5.75;2.05;;;;;;;12.50;47.08;101411.22;5007114;28;20046;-69
2022/10/08 05:54:05;;;;;;;3.53;1.85;;;;;;;12.51;46.64;101396.50;5008080;28;20383;-69
2022/10/08 05:56:33;;;;;;;3.70;2.10;;;;;;;12.53;47.06;101410.97;4988976;28;20042;-71
2022/10/08 05:59:02;;;;;;;4.07;1.75;;;;;;;12.53;47.14;101407.34;5006937;28;20054;-69
2022/10/08 06:01:32;;;;;;;3.35;1.83;;;;;;;12.55;47.12;101416.28;4981460;28;20050;-68
2022/10/08 06:04:04;;;;;;;3.70;1.88;;;;;;;12.56;47.38;101421.66;5007812;28;20399;-68
2022/10/08 06:06:36;;;;;;;3.22;1.75;;;;;;;12.56;47.19;101427.16;5011409;28;20045;-68
2022/10/08 06:09:05;;;;;;;3.72;1.83;;;;;;;12.58;46.90;101416.91;5011833;28;20048;-68
2022/10/08 06:11:35;;;;;;;4.03;2.10;;;;;;;12.59;47.14;101420.53;5010450;28;20410;-68
2022/10/08 06:14:07;;;;;;;5.60;2.10;;;;;;;12.59;47.11;101429.63;5011608;28;20637;-69
2022/10/08 06:16:35;;;;;;;3.47;1.92;;;;;;;12.60;46.92;101433.25;5010848;28;20045;-69
2022/10/08 06:19:05;;;;;;;4.60;2.20;;;;;;;12.62;47.08;101443.16;4993919;28;20137;-69
2022/10/08 06:21:34;;;;;;;5.45;2.50;;;;;;;12.62;47.25;101437.66;5009808;28;20095;-71
2022/10/08 06:24:04;;;;;;;4.70;2.45;;;;;;;12.63;46.90;101439.38;4993592;28;20065;-70
2022/10/08 06:26:34;;;;;;;6.05;2.90;;;;;;;12.65;47.18;101442.84;5009796;28;20057;-69
2022/10/08 06:29:05;;;;;;;5.50;2.60;;;;;;;12.65;47.14;101455.72;5011012;28;20073;-70
2022/10/08 06:31:34;;;;;;;3.63;2.22;;;;;;;12.66;47.43;101460.22;5010035;28;20104;-72
2022/10/08 06:34:04;;;;;;;5.13;2.40;;;;;;;12.66;47.53;101466.56;5007958;28;20081;-71
2022/10/08 06:36:33;;;;;;;6.03;2.75;;;;;;;12.69;47.53;101468.19;5020718;28;20077;-70
2022/10/08 06:39:04;;;;;;;2.95;2.22;;;;;;;12.68;47.34;101472.81;5009928;28;20513;-71
2022/10/08 06:41:33;;;;;;;4.72;2.42;;;;;;;12.68;47.34;101474.69;5009385;28;20547;-71
2022/10/08 06:44:06;;;;;;;3.47;2.20;;;;;;;12.69;47.43;101485.53;4992906;28;20501;-70
2022/10/08 06:46:34;;;;;;;4.80;2.30;;;;;;;12.68;47.73;101491.16;5009416;28;20050;-70
2022/10/08 06:49:04;;;;;;;4.32;2.35;;;;;;;12.70;47.69;101489.16;5011103;28;20053;-70
2022/10/08 06:51:35;;;;;;;6.07;3.00;;;;;;;12.68;47.78;101496.66;5008966;28;20057;-71
2022/10/08 06:54:04;;;;;;;3.97;2.45;;;;;;;12.69;47.49;101495.66;5009745;28;20041;-71
2022/10/08 06:56:35;;;;;;;4.72;2.63;;;;;;;12.69;47.78;101496.53;5008754;28;20111;-71
2022/10/08 06:59:05;;;;;;;5.07;2.80;;;;;;;12.69;47.46;101502.03;4993321;28;20482;-70
2022/10/08 07:01:33;;;;;;;6.18;2.92;;;;;;;12.69;47.46;101498.41;5009432;28;20061;-70
2022/10/08 07:04:05;;;;;;;5.43;2.85;;;;;;;12.71;48.03;101508.22;5008996;28;20101;-71
2022/10/08 07:06:35;;;;;;;5.85;2.55;;;;;;;12.69;47.72;101515.75;5010233;28;20315;-71
2022/10/08 07:09:05;;;;;;;4.95;2.85;;;;;;;12.71;48.30;101516.47;5010552;28;20038;-71
2022/10/08 07:11:33;;;;;;;3.97;2.55;;;;;;;12.73;47.75;101527.31;5008560;28;20502;-71
2022/10/08 07:14:07;;;;;;;5.55;3.00;;;;;;;12.74;48.14;101529.94;5009868;28;20038;-71
2022/10/08 07:16:34;;;;;;;4.72;2.88;;;;;;;12.74;48.30;101532.69;5008521;28;20050;-71
2022/10/08 07:19:02;;;;;;;5.93;3.47;;;;;;;12.74;47.80;101546.44;5009592;28;20049;-71
2022/10/08 07:21:31;;;;;;;6.43;3.47;;;;;;;12.77;48.31;101545.31;5009308;28;20510;-70
2022/10/08 07:24:01;;;;;;;6.13;3.55;;;;;;;12.77;47.72;101548.94;4992218;28;20108;-71
2022/10/08 07:26:31;;;;;;;5.05;2.80;;;;;;;12.78;47.88;101558.03;5008567;28;20723;-71
2022/10/08 07:29:00;;;;;;;4.47;2.92;;;;;;;12.79;48.44;101560.63;5012022;28;20457;-71
2022/10/08 07:31:30;;;;;;;6.60;3.25;;;;;;;12.81;48.33;101563.25;4991603;28;20050;-71
2022/10/08 07:33:59;;;;;;;7.30;3.53;;;;;;;12.81;48.28;101563.25;5007040;28;20403;-72
2022/10/08 07:36:29;;;;;;;6.15;3.58;;;;;;;12.83;48.54;101569.50;4976805;28;20045;-71
2022/10/08 07:39:04;;;;;;;6.15;4.30;;;;;;;12.83;48.55;101566.75;5010060;28;20068;-72
2022/10/08 07:41:32;;;;;;;7.23;3.90;;;;;;;12.81;48.60;101564.13;5007301;28;20038;-71
2022/10/08 07:44:01;;;;;;;9.65;4.30;;;;;;;12.85;48.17;101568.38;5008833;28;20069;-71
2022/10/08 07:46:31;;;;;;;7.88;4.60;;;;;;;12.88;48.57;101578.19;5008623;28;20418;-71
2022/10/08 07:49:01;;;;;;;9.25;4.30;;;;;;;12.88;48.47;101583.69;5009532;28;20100;-71
2022/10/08 07:51:31;;;;;;;6.45;4.03;;;;;;;12.91;48.42;101586.19;4990310;28;20042;-71
2022/10/08 07:54:01;;;;;;;6.82;4.65;;;;;;;12.95;48.40;101584.94;4990218;28;20792;-72
2022/10/08 07:56:33;;;;;;;8.18;4.60;;;;;;;12.99;48.57;101585.53;4991099;28;20073;-71
2022/10/08 07:59:02;;;;;;;6.82;5.05;;;;;;;13.02;48.98;101591.63;5009432;28;20050;-71
2022/10/08 08:01:32;;;;;;;6.85;4.93;;;;;;;13.07;48.87;101591.22;4995871;28;20482;-72
2022/10/08 08:04:01;;;;;;;7.18;4.88;;;;;;;13.11;48.77;101589.97;5007598;28;20046;-72
2022/10/08 08:06:31;;;;;;;7.55;5.35;;;;;;;13.17;49.02;101597.66;5008428;28;20092;-71
2022/10/08 08:09:01;;;;;;;9.25;5.05;;;;;;;13.23;49.55;101597.13;5008639;28;20507;-71
2022/10/08 08:11:29;;;;;;;8.65;5.13;;;;;;;13.31;48.96;101605.56;5007670;28;20042;-72
2022/10/08 08:13:57;;;;;;;8.77;4.93;;;;;;;13.39;49.41;101597.53;5008734;28;20065;-72
2022/10/08 08:16:27;;;;;;;6.32;4.60;;;;;;;13.51;49.03;101601.97;5008061;28;20061;-71
2022/10/08 08:18:58;;;;;;;6.70;4.72;;;;;;;13.62;49.42;101615.66;5009148;28;20447;-71
2022/10/08 08:21:28;;;;;;;6.13;4.20;;;;;;;13.74;49.11;101608.19;5008176;28;20241;-71
2022/10/08 08:23:58;;;;;;;7.43;5.25;;;;;;;13.90;48.69;101613.19;5008496;28;20044;-71
2022/10/08 08:26:29;;;;;;;6.63;4.50;;;;;;;14.02;48.72;101617.59;5007436;28;20054;-71
2022/10/08 08:28:58;;;;;;;6.70;4.50;;;;;;;14.17;48.98;101616.22;5009082;28;20041;-71
2022/10/08 08:31:28;;;;;;;6.63;4.63;;;;;;;14.31;48.23;101626.84;5006572;28;20056;-72
2022/10/08 08:33:59;;;;;;;7.72;4.82;;;;;;;14.50;47.93;101630.69;4988204;28;20050;-71
2022/10/08 08:36:29;;;;;;;7.18;4.93;;;;;;;14.59;48.26;101627.97;5003171;28;20069;-71
2022/10/08 08:38:57;;;;;;;7.05;4.75;;;;;;;14.76;47.73;101630.00;5008741;28;20044;-71
2022/10/08 08:41:45;;;;;;;6.93;4.45;;;;;;;14.95;47.17;101639.31;5006477;28;20054;-71
2022/10/08 08:44:20;;;;;;;7.18;4.28;;;;;;;15.06;47.33;101644.69;5008208;28;20038;-71
2022/10/08 08:46:52;;;;;;;5.80;3.88;;;;;;;15.16;46.92;101645.56;5008072;28;20042;-71
2022/10/08 08:49:25;;;;;;;6.15;3.83;;;;;;;15.26;46.36;101654.69;4991441;28;20341;-71
2022/10/08 08:51:54;;;;;;;6.88;3.53;;;;;;;15.33;45.77;101655.00;5007774;28;20514;-71
2022/10/08 08:54:22;;;;;;;8.38;4.22;;;;;;;15.40;45.78;101654.28;5007482;28;20052;-71
2022/10/08 08:56:53;;;;;;;7.63;4.22;;;;;;;15.49;45.41;101663.56;5006290;28;20350;-71
2022/10/08 08:59:28;;;;;;;6.93;3.70;;;;;;;15.55;45.47;101662.09;5008787;28;20639;-71
2022/10/08 09:01:59;;;;;;;5.88;3.78;;;;;;;15.60;45.54;101665.28;5007383;28;20080;-71
2022/10/08 09:04:37;;;;;;;6.25;3.50;;;;;;;15.66;44.55;101664.72;5006206;28;20430;-71
2022/10/08 09:07:16;;;;;;;6.20;2.92;;;;;;;15.72;44.58;101666.88;5007389;28;20430;-71
2022/10/08 09:09:47;;;;;;;;;;;;;;;15.49;45.37;101675.47;5008068;28;20057;-71
2022/10/08 09:12:19;;;;;;;6.20;3.17;;;;;;;15.83;44.70;101675.00;5006656;28;19932;-71
2022/10/08 09:14:53;;;;;;;6.97;3.35;;;;;;;15.89;45.10;101675.25;5008448;28;20034;-71
2022/10/08 09:17:25;;;;;;;6.93;3.95;;;;;;;15.99;44.71;101680.75;5006626;28;20419;-71
2022/10/08 09:19:53;;;;;;;6.78;3.50;;;;;;;16.02;44.59;101682.34;5009088;28;20049;-73
2022/10/08 09:22:24;;;;;;;6.38;3.03;;;;;;;16.12;44.42;101675.75;5006996;28;20046;-72
2022/10/08 09:24:57;;;;;;;4.47;2.97;;;;;;;16.17;43.72;101675.31;5007761;28;20044;-71
2022/10/08 09:27:43;;;;;;;5.95;3.30;;;;;;;16.21;43.17;101669.38;5007388;28;20046;-72
2022/10/08 09:30:30;;;;;;;4.68;2.90;;;;;;;16.25;43.06;101684.59;5005573;28;20061;-72
2022/10/08 09:33:01;;;;;;;5.80;2.55;;;;;;;16.30;42.88;101694.34;5008330;28;20046;-72
2022/10/08 09:35:32;;;;;;;4.22;2.33;;;;;;;16.32;42.87;101687.66;4999022;28;20085;-72
2022/10/08 09:38:03;;;;;;;5.28;2.90;;;;;;;16.31;42.93;101694.19;5008506;28;20137;-72
2022/10/08 09:40:33;;;;;;;5.90;2.75;;;;;;;16.32;42.59;101695.94;5010986;28;20100;-72
2022/10/08 09:43:13;;;;;;;6.80;2.80;;;;;;;16.35;41.97;101703.03;4999699;28;20050;-72
2022/10/08 09:45:46;;;;;;;5.50;2.78;;;;;;;16.34;41.93;101693.00;5015627;28;20437;-71
2022/10/08 09:48:21;;;;;;;6.97;3.20;;;;;;;16.34;41.18;101704.91;5014192;28;20468;-71
2022/10/08 09:50:56;;;;;;;5.47;3.20;;;;;;;16.33;41.86;101713.38;5010152;28;20045;-71
2022/10/08 09:53:27;;;;;;;5.05;2.78;;;;;;;16.31;42.12;101710.78;5010456;28;20069;-71
2022/10/08 09:55:59;;;;;;;5.05;2.67;;;;;;;16.33;41.35;101729.97;4992922;28;20046;-71
2022/10/08 09:58:31;;;;;;;4.53;2.88;;;;;;;16.33;41.30;101729.97;5011672;28;20050;-71
2022/10/08 10:01:03;;;;;;;6.20;2.92;;;;;;;16.30;41.70;101735.78;5010634;28;20100;-71
2022/10/08 10:03:33;;;;;;;5.90;2.75;;;;;;;16.27;41.78;101734.16;5012060;28;20053;-71
2022/10/08 10:06:01;;;;;;;5.95;2.70;;;;;;;16.29;41.75;101739.56;4966861;28;20133;-71
2022/10/08 10:08:54;;;;;;;4.90;2.40;;;;;;;16.32;41.05;101722.69;5011237;28;20136;-71
2022/10/08 10:11:29;;;;;;;5.10;2.38;;;;;;;16.33;41.35;101735.50;5006073;28;20045;-71
2022/10/08 10:14:04;;;;;;;4.15;2.45;;;;;;;16.36;41.09;101722.22;4993447;28;20109;-71
2022/10/08 10:16:36;;;;;;;4.03;2.33;;;;;;;16.40;41.26;101720.03;5011194;28;20056;-72
2022/10/08 10:19:07;;;;;;;3.70;2.20;;;;;;;16.44;40.97;101719.56;5010715;28;20503;-71
2022/10/08 10:21:41;;;;;;;3.70;2.05;;;;;;;16.50;40.28;101727.25;5010746;28;20578;-71
2022/10/08 10:24:35;;;;;;;7.10;2.20;;;;;;;16.53;40.29;101729.72;5010642;28;20379;-71
2022/10/08 10:27:08;;;;;;;4.45;2.30;;;;;;;16.57;40.12;101725.63;5010472;28;20064;-71
2022/10/08 10:29:56;;;;;;;4.03;2.00;;;;;;;16.60;39.33;101728.06;4994050;28;20049;-71
2022/10/08 10:32:29;;;;;;;4.25;1.70;;;;;;;16.63;40.03;101722.25;4996601;28;20057;-71
2022/10/08 10:35:06;;;;;;;4.28;2.08;;;;;;;16.67;39.52;101725.56;5002697;28;20042;-71
2022/10/08 10:37:40;;;;;;;3.63;1.88;;;;;;;16.72;40.17;101727.88;5010322;28;20056;-71
2022/10/08 10:40:23;;;;;;;3.17;1.80;;;;;;;16.81;39.59;101732.50;5009616;28;20041;-71
2022/10/08 10:42:58;;;;;;;5.65;2.08;;;;;;;16.86;40.04;101727.38;4992234;28;20065;-71
2022/10/08 10:45:33;;;;;;;4.95;2.13;;;;;;;16.94;38.82;101727.47;5010118;28;20049;-71
2022/10/08 10:48:02;;;;;;;4.25;1.70;;;;;;;16.99;39.88;101725.13;5011345;28;20045;-71
2022/10/08 10:50:39;;;;;;;3.00;1.67;;;;;;;17.11;38.99;101729.41;5008475;28;20096;-71
2022/10/08 10:53:18;;;;;;;3.55;1.80;;;;;;;17.18;37.89;101738.81;4980613;28;20074;-71
2022/10/08 10:55:55;;;;;;;4.22;1.50;;;;;;;17.24;37.48;101734.56;5003110;28;20049;-71
2022/10/08 10:58:38;;;;;;;2.60;1.20;;;;;;;17.29;37.17;101737.75;4998863;28;20108;-71
2022/10/08 11:01:23;;;;;;;3.67;1.40;;;;;;;17.33;37.66;101740.03;5009410;28;20050;-71
2022/10/08 11:04:00;;;;;;;3.38;1.20;;;;;;;17.40;37.39;101746.66;5009358;28;20076;-71
2022/10/08 11:06:54;;;;;;;2.45;1.10;;;;;;;17.49;37.17;101755.91;4997374;28;20060;-71
2022/10/08 11:09:32;;;;;;;1.75;0.77;;;;;;;17.56;36.66;101758.94;5010461;28;20042;-71
2022/10/08 11:12:09;;;;;;;1.95;0.80;;;;;;;17.60;35.95;101764.00;5005349;28;20045;-70
2022/10/08 11:14:49;;;;;;;2.95;1.10;;;;;;;17.65;35.98;101757.97;4984976;28;20049;-71
2022/10/08 11:17:32;;;;;;;3.65;1.02;;;;;;;17.65;35.55;101756.06;5009254;28;20056;-71
2022/10/08 11:20:16;;;;;;;2.85;1.00;;;;;;;17.65;35.37;101749.66;5010097;28;20038;-71
2022/10/08 11:22:54;;;;;;;3.33;1.10;;;;;;;17.63;35.64;101757.28;5013503;28;20395;-71
2022/10/08 11:25:32;;;;;;;2.90;1.00;;;;;;;17.61;35.21;101751.03;5008303;28;20116;-71
2022/10/08 11:28:29;;;;;;;3.70;1.00;;;;;;;17.54;34.93;101747.16;5008573;28;20107;-71
2022/10/08 11:31:10;;;;;;;3.30;1.10;;;;;;;17.47;34.43;101746.94;5009023;28;20499;-71
2022/10/08 11:33:40;;;;;;;2.58;1.00;;;;;;;17.38;35.13;101745.97;5009408;28;20050;-70
2022/10/08 11:36:21;;;;;;;2.60;0.90;;;;;;;17.32;34.70;101745.72;5000498;28;20049;-70
2022/10/08 11:38:56;;;;;;;2.45;0.57;;;;;;;17.25;34.99;101741.84;5001499;28;20095;-70
2022/10/08 11:41:31;;;;;;;3.03;0.77;;;;;;;17.19;34.24;101742.47;5011490;28;20049;-70
2022/10/08 11:44:01;;;;;;;2.67;0.90;;;;;;;17.17;34.86;101744.50;5009501;28;20048;-70
2022/10/08 11:46:30;;;;;;;3.20;0.70;;;;;;;17.16;34.53;101745.53;5008796;28;20049;-71
2022/10/08 11:49:01;;;;;;;2.38;0.90;;;;;;;17.18;34.18;101746.25;5008310;28;20049;-70
2022/10/08 11:51:37;;;;;;;1.15;0.60;;;;;;;17.20;33.35;101746.97;5007716;28;20048;-70